createdAt,value
2019-05-02T00:02:24.100Z,93.80
2019-05-02T00:04:51.049Z,93.80
2019-05-02T00:07:20.106Z,93.90
2019-05-02T00:09:48.526Z,94.00
2019-05-02T00:12:15.491Z,94.10
2019-05-02T00:14:41.900Z,94.10
2019-05-02T00:17:08.077Z,94.60
2019-05-02T00:19:34.183Z,94.40
2019-05-02T00:22:00.458Z,94.40
2019-05-02T00:24:26.639Z,94.50
2019-05-02T00:26:56.114Z,94.50
2019-05-02T00:29:23.814Z,94.40
2019-05-02T00:31:48.954Z,94.60
2019-05-02T00:34:15.050Z,94.60
2019-05-02T00:36:41.143Z,94.60
2019-05-02T00:39:09.616Z,94.60
2019-05-02T00:41:38.310Z,94.60
2019-05-02T00:44:06.068Z,94.70
2019-05-02T00:46:35.059Z,94.70
2019-05-02T00:49:01.917Z,94.70
2019-05-02T00:51:28.168Z,94.90
2019-05-02T00:53:54.364Z,95.10
2019-05-02T00:56:20.466Z,95.10
2019-05-02T00:58:46.544Z,95.20
2019-05-02T01:01:29.374Z,95.20
2019-05-02T01:03:59.742Z,95.40
2019-05-02T01:06:25.915Z,95.50
2019-05-02T01:08:52.020Z,95.60
2019-05-02T01:11:18.238Z,95.60
2019-05-02T01:13:44.347Z,95.80
2019-05-02T01:16:10.535Z,95.50
2019-05-02T01:18:37.124Z,95.50
2019-05-02T01:21:04.714Z,95.50
2019-05-02T01:23:30.924Z,95.50
2019-05-02T01:25:57.007Z,95.50
2019-05-02T01:28:27.651Z,95.50
2019-05-02T01:31:13.109Z,95.50
2019-05-02T01:33:41.932Z,95.60
2019-05-02T01:39:02.908Z,95.50
2019-05-02T01:41:29.168Z,95.60
2019-05-02T01:43:59.956Z,95.60
2019-05-02T01:46:24.173Z,95.60
2019-05-02T01:48:50.382Z,95.60
2019-05-02T01:51:16.456Z,95.70
2019-05-02T01:53:42.584Z,95.80
2019-05-02T01:56:08.787Z,96.00
2019-05-02T01:58:34.867Z,96.00
2019-05-02T02:01:02.004Z,96.00
2019-05-02T02:03:28.238Z,96.10
2019-05-02T02:05:54.399Z,96.10
2019-05-02T02:08:20.666Z,96.20
2019-05-02T02:10:50.844Z,96.20
2019-05-02T02:13:14.951Z,96.00
2019-05-02T02:15:41.041Z,96.10
2019-05-02T02:18:07.246Z,96.10
2019-05-02T02:20:45.165Z,96.20
2019-05-02T02:23:29.049Z,96.30
2019-05-02T02:25:56.969Z,96.40
2019-05-02T02:28:23.162Z,96.50
2019-05-02T02:30:49.402Z,96.50
2019-05-02T02:33:15.586Z,96.60
2019-05-02T02:35:49.650Z,96.70
2019-05-02T02:38:09.758Z,96.70
2019-05-02T02:40:35.966Z,96.70
2019-05-02T02:43:12.805Z,96.60
2019-05-02T02:45:44.135Z,96.70
2019-05-02T02:48:10.595Z,96.80
2019-05-02T02:50:42.849Z,96.80
2019-05-02T02:53:04.684Z,96.90
2019-05-02T02:55:30.973Z,96.90
2019-05-02T02:57:58.330Z,96.90
2019-05-02T03:00:25.127Z,96.60
2019-05-02T03:02:51.321Z,96.80
2019-05-02T03:05:18.506Z,96.90
2019-05-02T03:07:45.689Z,96.90
2019-05-02T03:10:11.909Z,96.60
2019-05-02T03:12:43.231Z,97.00
2019-05-02T03:15:21.090Z,96.80
2019-05-02T03:17:47.462Z,97.10
2019-05-02T03:20:13.545Z,97.20
2019-05-02T03:22:41.952Z,97.30
2019-05-02T03:25:08.440Z,97.40
2019-05-02T03:27:37.529Z,97.50
2019-05-02T03:30:03.765Z,97.50
2019-05-02T03:32:34.306Z,97.50
2019-05-02T03:34:57.974Z,97.50
2019-05-02T03:37:24.244Z,97.60
2019-05-02T03:39:57.241Z,97.60
2019-05-02T03:42:19.075Z,97.60
2019-05-02T03:44:55.058Z,97.70
2019-05-02T03:47:13.539Z,97.70
2019-05-02T03:49:41.034Z,97.80
2019-05-02T03:52:07.821Z,97.80
2019-05-02T03:54:34.603Z,97.80
2019-05-02T03:57:00.896Z,97.90
2019-05-02T03:59:37.376Z,97.90
2019-05-02T04:01:57.080Z,97.80
2019-05-02T04:04:23.368Z,97.90
2019-05-02T04:06:54.843Z,97.90
2019-05-02T04:09:32.175Z,97.90
2019-05-02T04:12:00.139Z,98.00
2019-05-02T04:14:37.575Z,98.40
2019-05-02T04:16:55.137Z,98.10
2019-05-02T04:19:22.379Z,98.30
2019-05-02T04:21:52.633Z,98.30
2019-05-02T04:24:17.189Z,98.30
2019-05-02T04:26:53.644Z,98.30
2019-05-02T04:29:12.028Z,98.30
2019-05-02T04:31:38.475Z,98.30
2019-05-02T04:34:14.086Z,98.40
2019-05-02T04:36:32.804Z,98.40
2019-05-02T04:38:59.648Z,98.30
2019-05-02T04:41:31.721Z,98.30
2019-05-02T04:43:57.587Z,98.30
2019-05-02T04:46:26.991Z,98.30
2019-05-02T04:48:52.968Z,98.60
2019-05-02T04:51:20.482Z,98.20
2019-05-02T04:53:49.544Z,98.50
2019-05-02T04:56:14.219Z,98.20
2019-05-02T04:58:40.793Z,98.10
2019-05-02T05:01:09.924Z,98.10
2019-05-02T05:03:37.573Z,98.10
2019-05-02T05:06:08.004Z,98.10
2019-05-02T05:08:32.626Z,98.00
2019-05-02T05:10:58.716Z,98.10
2019-05-02T05:13:26.512Z,98.00
2019-05-02T05:15:52.947Z,98.00
2019-05-02T05:18:19.092Z,97.80
2019-05-02T05:20:45.988Z,97.80
2019-05-02T05:23:18.248Z,97.70
2019-05-02T05:25:45.028Z,97.60
2019-05-02T05:28:11.137Z,97.60
2019-05-02T05:30:44.917Z,97.60
2019-05-02T05:33:07.624Z,97.60
2019-05-02T05:35:33.340Z,97.50
2019-05-02T05:37:59.525Z,97.50
2019-05-02T05:40:30.411Z,97.40
2019-05-02T05:42:53.623Z,97.40
2019-05-02T05:45:19.823Z,97.50
2019-05-02T05:47:47.796Z,97.30
2019-05-02T05:50:14.488Z,97.20
2019-05-02T05:52:42.445Z,97.30
2019-05-02T05:55:12.760Z,97.40
2019-05-02T05:57:39.885Z,97.50
2019-05-02T06:00:11.859Z,97.60
2019-05-02T06:02:50.879Z,97.70
2019-05-02T06:05:05.021Z,97.80
2019-05-02T06:07:33.637Z,97.80
2019-05-02T06:10:02.201Z,97.80
2019-05-02T06:12:47.182Z,97.80
2019-05-02T06:15:13.381Z,97.90
2019-05-02T06:17:39.477Z,97.90
2019-05-02T06:20:06.186Z,98.00
2019-05-02T06:22:32.261Z,98.10
2019-05-02T06:25:08.454Z,98.10
2019-05-02T06:27:31.915Z,98.20
2019-05-02T06:29:58.027Z,97.80
2019-05-02T06:32:24.214Z,98.00
2019-05-02T06:34:50.300Z,98.10
2019-05-02T06:37:16.436Z,98.00
2019-05-02T06:39:42.727Z,97.90
2019-05-02T06:42:08.841Z,97.80
2019-05-02T06:44:34.931Z,97.80
2019-05-02T06:47:04.368Z,97.80
2019-05-02T06:49:29.015Z,97.90
2019-05-02T06:51:56.199Z,97.80
2019-05-02T06:54:24.118Z,97.70
2019-05-02T06:56:50.668Z,97.80
2019-05-02T06:59:18.453Z,97.70
2019-05-02T07:01:45.847Z,97.70
2019-05-02T07:04:11.973Z,97.60
2019-05-02T07:06:50.213Z,97.30
2019-05-02T07:09:06.355Z,97.10
2019-05-02T07:11:33.211Z,96.90
2019-05-02T07:14:12.652Z,96.80
2019-05-02T07:16:38.747Z,96.60
2019-05-02T07:19:09.005Z,96.60
2019-05-02T07:21:35.181Z,96.70
2019-05-02T07:24:01.274Z,96.60
2019-05-02T07:26:27.385Z,96.60
2019-05-02T07:28:53.674Z,96.40
2019-05-02T07:31:19.784Z,96.10
2019-05-02T07:33:45.955Z,95.90
2019-05-02T07:36:12.058Z,95.60
2019-05-02T07:38:38.317Z,95.40
2019-05-02T07:41:04.984Z,95.30
2019-05-02T07:43:31.194Z,95.00
2019-05-02T07:45:57.393Z,94.70
2019-05-02T07:48:23.626Z,94.40
2019-05-02T07:50:50.195Z,94.40
2019-05-02T07:53:16.490Z,94.00
2019-05-02T07:55:42.787Z,93.90
2019-05-02T07:58:09.402Z,93.20
2019-05-02T08:00:37.217Z,92.70
2019-05-02T08:03:05.122Z,92.60
2019-05-02T08:05:31.492Z,92.30
2019-05-02T08:07:57.695Z,91.40
2019-05-02T08:10:24.139Z,91.30
2019-05-02T08:12:50.318Z,91.00
2019-05-02T08:15:16.548Z,91.00
2019-05-02T08:17:42.635Z,90.60
2019-05-02T08:20:08.843Z,90.60
2019-05-02T08:22:35.158Z,90.40
2019-05-02T08:25:03.911Z,90.60
2019-05-02T08:27:34.729Z,90.20
2019-05-02T08:30:03.894Z,89.00
2019-05-02T08:32:28.027Z,88.50
2019-05-02T08:34:54.117Z,87.50
2019-05-02T08:37:20.246Z,86.70
2019-05-02T08:39:46.345Z,87.30
2019-05-02T08:42:12.457Z,87.10
2019-05-02T08:44:50.324Z,87.80
2019-05-02T08:47:18.388Z,87.40
2019-05-02T08:49:34.642Z,85.70
2019-05-02T08:52:00.770Z,85.20
2019-05-02T08:54:36.328Z,85.20
2019-05-02T08:57:02.884Z,85.30
2019-05-02T08:59:29.005Z,85.30
2019-05-02T09:01:55.327Z,86.00
2019-05-02T09:04:24.205Z,86.80
2019-05-02T09:06:53.144Z,87.20
2019-05-02T09:09:17.510Z,87.60
2019-05-02T09:11:48.777Z,87.70
2019-05-02T09:14:12.573Z,87.10
2019-05-02T09:16:38.879Z,87.50
2019-05-02T09:19:05.084Z,88.00
2019-05-02T09:21:34.780Z,88.40
2019-05-02T09:23:59.253Z,88.60
2019-05-02T09:26:35.206Z,88.60
2019-05-02T09:28:56.305Z,88.70
2019-05-02T09:31:22.667Z,89.30
2019-05-02T09:33:49.184Z,90.10
2019-05-02T09:36:15.380Z,90.60
2019-05-02T09:38:42.488Z,91.00
2019-05-02T09:41:18.441Z,91.10
2019-05-02T09:43:38.954Z,91.50
2019-05-02T09:46:07.320Z,91.80
2019-05-02T09:48:32.852Z,92.20
2019-05-02T09:51:04.689Z,92.60
2019-05-02T09:53:27.022Z,92.80
2019-05-02T09:55:57.265Z,92.90
2019-05-02T09:58:23.895Z,93.20
2019-05-02T10:00:54.229Z,93.30
2019-05-02T10:03:22.441Z,93.50
2019-05-02T10:05:48.575Z,93.50
2019-05-02T10:08:14.838Z,93.40
2019-05-02T10:10:44.165Z,93.60
2019-05-02T10:16:02.051Z,93.60
2019-05-02T10:18:30.121Z,94.20
2019-05-02T10:20:56.383Z,94.30
2019-05-02T10:23:23.450Z,94.40
2019-05-02T10:25:51.967Z,94.20
2019-05-02T10:28:19.993Z,94.20
2019-05-02T10:30:47.476Z,94.50
2019-05-02T10:33:14.504Z,94.80
2019-05-02T10:35:43.382Z,95.10
2019-05-02T10:38:17.615Z,95.20
2019-05-02T10:40:39.671Z,95.20
2019-05-02T10:43:06.990Z,95.20
2019-05-02T10:45:33.681Z,95.30
2019-05-02T10:48:02.132Z,95.50
2019-05-02T10:50:48.283Z,95.50
2019-05-02T10:53:15.773Z,95.50
2019-05-02T10:55:43.099Z,95.70
2019-05-02T10:58:09.189Z,95.90
2019-05-02T11:00:37.227Z,96.30
2019-05-02T11:03:22.493Z,96.70
2019-05-02T11:05:57.856Z,97.50
2019-05-02T11:08:22.490Z,98.10
2019-05-02T11:10:49.029Z,98.30
2019-05-02T11:13:21.773Z,98.90
2019-05-02T11:16:07.002Z,98.80
2019-05-02T11:18:52.288Z,99.30
2019-05-02T11:21:18.889Z,99.00
2019-05-02T11:23:49.915Z,99.20
2019-05-02T11:26:21.565Z,99.00
2019-05-02T11:28:44.298Z,99.10
2019-05-02T11:31:12.381Z,99.10
2019-05-02T11:33:38.791Z,99.40
2019-05-02T11:36:05.161Z,99.70
2019-05-02T11:38:31.719Z,99.50
2019-05-02T11:40:58.151Z,99.40
2019-05-02T11:43:24.329Z,99.50
2019-05-02T11:45:54.161Z,99.50
2019-05-02T11:48:19.879Z,99.60
2019-05-02T11:50:46.112Z,99.70
2019-05-02T11:53:23.250Z,99.20
2019-05-02T11:55:41.958Z,98.90
2019-05-02T11:58:09.977Z,98.80
2019-05-02T12:00:39.691Z,98.90
2019-05-02T12:03:28.271Z,99.00
2019-05-02T12:05:52.638Z,99.30
2019-05-02T12:08:18.869Z,99.20
2019-05-02T12:10:45.183Z,99.30
2019-05-02T12:13:15.809Z,99.40
2019-05-02T12:15:43.916Z,99.50
2019-05-02T12:18:09.310Z,99.60
2019-05-02T12:20:36.837Z,99.70
2019-05-02T12:23:05.146Z,99.80
2019-05-02T12:25:32.855Z,99.90
2019-05-02T12:27:59.225Z,99.90
2019-05-02T12:30:28.977Z,99.90
2019-05-02T12:32:53.315Z,99.90
2019-05-02T12:35:19.718Z,99.90
2019-05-02T12:37:47.024Z,99.90
2019-05-02T12:40:14.668Z,99.90
2019-05-02T12:42:41.860Z,99.90
2019-05-02T12:45:09.162Z,99.90
2019-05-02T12:47:35.240Z,99.80
2019-05-02T12:50:03.105Z,99.40
2019-05-02T12:52:29.406Z,99.20
2019-05-02T12:54:55.638Z,99.30
2019-05-02T12:57:22.053Z,99.50
2019-05-02T12:59:48.414Z,99.50
2019-05-02T13:02:19.370Z,99.00
2019-05-02T13:04:45.598Z,99.10
2019-05-02T13:07:12.788Z,99.00
2019-05-02T13:09:39.309Z,98.60
2019-05-02T13:12:08.103Z,98.70
2019-05-02T13:14:34.345Z,98.40
2019-05-02T13:17:05.463Z,98.50
2019-05-02T13:19:38.148Z,98.00
2019-05-02T13:22:02.243Z,97.60
2019-05-02T13:24:32.434Z,97.70
2019-05-02T13:26:59.280Z,97.30
2019-05-02T13:29:26.519Z,97.40
2019-05-02T13:32:14.343Z,97.20
2019-05-02T13:34:43.279Z,97.40
2019-05-02T13:37:12.092Z,97.40
2019-05-02T13:39:39.804Z,97.50
2019-05-02T13:42:07.030Z,97.50
2019-05-02T13:44:52.565Z,97.10
2019-05-02T13:47:21.843Z,96.50
2019-05-02T13:49:54.081Z,96.40
2019-05-02T13:52:16.292Z,95.80
2019-05-02T13:54:42.696Z,95.20
2019-05-02T13:57:09.373Z,95.20
2019-05-02T13:59:35.528Z,95.20
2019-05-02T14:02:04.729Z,95.30
2019-05-02T14:04:32.651Z,95.40
2019-05-02T14:06:58.933Z,95.50
2019-05-02T14:09:32.199Z,95.30
2019-05-02T14:12:05.814Z,95.50
2019-05-02T14:14:32.621Z,95.50
2019-05-02T14:16:59.180Z,95.60
2019-05-02T14:19:25.398Z,95.70
2019-05-02T14:21:51.924Z,95.20
2019-05-02T14:24:20.320Z,94.90
2019-05-02T14:26:46.468Z,94.80
2019-05-02T14:29:16.118Z,94.20
2019-05-02T14:31:42.219Z,93.90
2019-05-02T14:34:25.626Z,93.80
2019-05-02T14:36:56.332Z,93.20
2019-05-02T14:39:20.217Z,92.70
2019-05-02T14:41:46.280Z,92.80
2019-05-02T14:44:12.395Z,92.60
2019-05-02T14:46:39.641Z,92.40
2019-05-02T14:49:05.974Z,92.40
2019-05-02T14:51:32.754Z,92.60
2019-05-02T14:54:03.747Z,92.80
2019-05-02T14:56:32.682Z,92.70
2019-05-02T14:58:58.157Z,92.70
2019-05-02T15:01:26.081Z,92.20
2019-05-02T15:03:58.109Z,92.20
2019-05-02T15:06:23.668Z,92.10
2019-05-02T15:08:49.369Z,92.20
2019-05-02T15:11:15.574Z,92.10
2019-05-02T15:13:43.598Z,90.20
2019-05-02T15:16:10.530Z,89.30
2019-05-02T15:18:37.761Z,86.90
2019-05-02T15:21:11.396Z,87.20
2019-05-02T15:23:32.482Z,86.80
2019-05-02T15:25:59.178Z,84.90
2019-05-02T15:28:25.280Z,84.40
2019-05-02T15:31:11.704Z,84.40
2019-05-02T15:33:51.840Z,85.60
2019-05-02T15:36:18.077Z,85.40
2019-05-02T15:38:47.299Z,84.40
2019-05-02T15:41:13.586Z,84.80
2019-05-02T15:43:44.472Z,84.60
2019-05-02T15:46:14.849Z,84.40
2019-05-02T15:48:38.547Z,84.80
2019-05-02T15:51:06.142Z,81.70
2019-05-02T15:53:48.463Z,80.00
2019-05-02T15:56:19.850Z,80.10
2019-05-02T15:58:39.922Z,79.10
2019-05-02T16:01:24.390Z,78.30
2019-05-02T16:04:01.710Z,78.70
2019-05-02T16:06:31.635Z,77.10
2019-05-02T16:08:56.024Z,76.10
2019-05-02T16:11:23.034Z,75.70
2019-05-02T16:13:52.416Z,74.50
2019-05-02T16:16:21.765Z,75.40
2019-05-02T16:18:47.849Z,76.00
2019-05-02T16:21:28.541Z,76.80
2019-05-02T16:24:14.776Z,77.30
2019-05-02T16:26:42.677Z,78.00
2019-05-02T16:29:07.851Z,77.40
2019-05-02T16:31:35.864Z,78.70
2019-05-02T16:34:05.165Z,79.40
2019-05-02T16:36:37.285Z,80.20
2019-05-02T16:38:59.307Z,80.20
2019-05-02T16:41:25.518Z,79.40
2019-05-02T16:43:52.405Z,78.70
2019-05-02T16:46:18.597Z,79.10
2019-05-02T16:48:44.782Z,79.00
2019-05-02T16:51:27.597Z,80.00
2019-05-02T16:53:38.908Z,80.90
2019-05-02T16:56:06.995Z,81.40
2019-05-02T16:58:33.720Z,81.60
2019-05-02T17:01:00.154Z,81.50
2019-05-02T17:03:26.598Z,81.90
2019-05-02T17:05:54.415Z,81.60
2019-05-02T17:08:22.737Z,82.20
2019-05-02T17:10:53.798Z,81.80
2019-05-02T17:13:18.745Z,84.00
2019-05-02T17:15:44.977Z,84.50
2019-05-02T17:18:13.324Z,84.10
2019-05-02T17:20:39.170Z,84.20
2019-05-02T17:23:07.502Z,84.10
2019-05-02T17:25:33.363Z,83.80
2019-05-02T17:28:02.412Z,82.90
2019-05-02T17:30:33.654Z,82.70
2019-05-02T17:32:55.637Z,83.60
2019-05-02T17:35:24.346Z,83.90
2019-05-02T17:37:52.341Z,84.40
2019-05-02T17:40:22.493Z,84.70
2019-05-02T17:42:47.183Z,84.30
2019-05-02T17:45:14.306Z,84.60
2019-05-02T17:47:40.457Z,84.00
2019-05-02T17:50:26.214Z,84.40
2019-05-02T17:52:56.113Z,84.70
2019-05-02T17:55:22.192Z,85.40
2019-05-02T17:57:48.325Z,85.60
2019-05-02T18:00:17.129Z,86.00
2019-05-02T18:02:46.871Z,86.20
2019-05-02T18:05:12.160Z,86.40
2019-05-02T18:07:38.554Z,86.90
2019-05-02T18:10:13.630Z,87.50
2019-05-02T18:12:33.802Z,88.00
2019-05-02T18:15:01.404Z,88.20
2019-05-02T18:17:29.152Z,88.30
2019-05-02T18:20:01.468Z,88.20
2019-05-02T18:22:26.399Z,88.60
2019-05-02T18:24:52.814Z,88.90
2019-05-02T18:27:18.965Z,88.90
2019-05-02T18:29:45.704Z,89.30
2019-05-02T18:32:12.840Z,89.90
2019-05-02T18:34:39.242Z,90.10
2019-05-02T18:37:06.383Z,90.30
2019-05-02T18:39:34.788Z,90.50
2019-05-02T18:42:03.917Z,90.60
2019-05-02T18:44:30.232Z,90.80
2019-05-02T18:46:57.798Z,90.90
2019-05-02T18:49:24.209Z,90.90
2019-05-02T18:51:55.608Z,91.10
2019-05-02T18:54:18.410Z,91.20
2019-05-02T18:56:50.123Z,91.30
2019-05-02T18:59:14.354Z,91.70
2019-05-02T19:01:42.624Z,91.40
2019-05-02T19:04:08.771Z,91.60
2019-05-02T19:06:36.190Z,92.00
2019-05-02T19:09:06.927Z,91.70
2019-05-02T19:11:35.315Z,91.70
2019-05-02T19:14:02.659Z,91.80
2019-05-02T19:16:29.120Z,91.80
2019-05-02T19:18:57.368Z,91.90
2019-05-02T19:21:26.533Z,91.90
2019-05-02T19:23:51.800Z,92.00
2019-05-02T19:26:18.312Z,92.10
2019-05-02T19:29:08.330Z,92.10
2019-05-02T19:31:36.607Z,92.00
2019-05-02T19:34:04.501Z,92.10
2019-05-02T19:36:32.738Z,92.20
2019-05-02T19:39:06.282Z,92.20
2019-05-02T19:41:26.736Z,92.20
2019-05-02T19:43:53.366Z,92.30
2019-05-02T19:46:26.407Z,92.40
2019-05-02T19:48:47.842Z,92.40
2019-05-02T19:51:18.768Z,92.70
2019-05-02T19:53:42.606Z,92.70
2019-05-02T19:56:09.051Z,92.80
2019-05-02T19:58:36.821Z,92.50
2019-05-02T20:01:04.207Z,92.50
2019-05-02T20:03:32.235Z,92.40
2019-05-02T20:06:02.435Z,92.20
2019-05-02T20:08:26.565Z,92.20
2019-05-02T20:10:56.641Z,92.20
2019-05-02T20:13:28.310Z,92.20
2019-05-02T20:15:52.264Z,92.10
2019-05-02T20:18:18.502Z,92.10
2019-05-02T20:21:03.291Z,92.10
2019-05-02T20:23:34.878Z,92.10
2019-05-02T20:25:57.439Z,92.10
2019-05-02T20:28:23.734Z,92.00
2019-05-02T20:30:49.860Z,92.10
2019-05-02T20:33:15.990Z,92.20
2019-05-02T20:35:42.236Z,92.20
2019-05-02T20:38:11.139Z,92.30
2019-05-02T20:40:37.046Z,92.30
2019-05-02T20:43:04.589Z,92.40
2019-05-02T20:45:32.256Z,92.50
2019-05-02T20:47:58.781Z,92.60
2019-05-02T20:50:25.108Z,92.60
2019-05-02T20:52:52.422Z,92.70
2019-05-02T20:55:18.866Z,92.70
2019-05-02T20:57:52.636Z,92.70
2019-05-02T21:00:23.537Z,92.80
2019-05-02T21:02:51.880Z,92.80
2019-05-02T21:05:21.977Z,92.90
2019-05-02T21:08:06.960Z,92.90
2019-05-02T21:10:52.200Z,92.90
2019-05-02T21:13:18.239Z,93.00
2019-05-02T21:15:44.369Z,93.10
2019-05-02T21:18:11.674Z,93.10
2019-05-02T21:20:38.154Z,93.10
2019-05-02T21:23:04.475Z,93.10
2019-05-02T21:25:32.585Z,93.20
2019-05-02T21:27:59.167Z,92.90
2019-05-02T21:30:26.478Z,92.70
2019-05-02T21:32:52.883Z,92.60
2019-05-02T21:35:19.118Z,92.50
2019-05-02T21:37:45.540Z,92.30
2019-05-02T21:40:12.471Z,92.30
2019-05-02T21:42:38.712Z,92.30
2019-05-02T21:45:07.076Z,92.40
2019-05-02T21:47:33.271Z,92.40
2019-05-02T21:50:07.139Z,92.40
2019-05-02T21:52:44.015Z,92.60
2019-05-02T21:55:12.416Z,92.70
2019-05-02T21:57:38.920Z,92.70
2019-05-02T22:00:16.711Z,92.70
2019-05-02T22:02:43.078Z,92.80
2019-05-02T22:05:09.871Z,92.80
2019-05-02T22:07:36.109Z,92.80
2019-05-02T22:10:05.812Z,92.60
2019-05-02T22:12:32.449Z,92.50
2019-05-02T22:14:58.765Z,92.50
2019-05-02T22:17:24.912Z,92.50
2019-05-02T22:19:52.499Z,92.90
2019-05-02T22:22:18.792Z,92.60
2019-05-02T22:24:45.055Z,92.60
2019-05-02T22:27:12.361Z,92.70
2019-05-02T22:29:38.861Z,92.50
2019-05-02T22:32:05.075Z,92.40
2019-05-02T22:34:32.669Z,92.30
2019-05-02T22:36:59.490Z,92.30
2019-05-02T22:39:36.672Z,92.10
2019-05-02T22:42:04.674Z,92.20
2019-05-02T22:44:32.516Z,92.20
2019-05-02T22:46:58.844Z,92.10
2019-05-02T22:49:25.064Z,92.00
2019-05-02T22:51:51.391Z,91.90
2019-05-02T22:54:26.951Z,91.80
2019-05-02T22:56:45.571Z,91.70
2019-05-02T22:59:11.824Z,91.70
2019-05-02T23:01:38.074Z,91.60
2019-05-02T23:04:04.585Z,91.70
2019-05-02T23:06:31.025Z,91.60
2019-05-02T23:08:57.377Z,91.60
2019-05-02T23:11:24.479Z,91.60
2019-05-02T23:13:51.769Z,91.60
2019-05-02T23:16:18.020Z,91.60
2019-05-02T23:18:44.245Z,91.60
2019-05-02T23:21:12.562Z,91.70
2019-05-02T23:23:38.520Z,91.70
2019-05-02T23:26:12.841Z,91.90
2019-05-02T23:28:42.221Z,91.80
2019-05-02T23:31:08.594Z,91.80
2019-05-02T23:33:53.361Z,91.90
2019-05-02T23:36:19.702Z,92.10
2019-05-02T23:38:45.924Z,92.20
2019-05-02T23:41:12.584Z,92.30
2019-05-02T23:43:38.876Z,92.40
2019-05-02T23:46:05.385Z,92.50
2019-05-02T23:48:32.595Z,92.70
2019-05-02T23:50:58.831Z,92.80
2019-05-02T23:53:25.050Z,92.90
2019-05-02T23:55:51.294Z,93.00
2019-05-02T23:58:17.524Z,93.10
